Memphis, Tennessee
Current Conditions -  °F | °C
As of 12:54 AM on Friday 31 Oct 2014 (Local Time) from KMEM Reporting Station
Scattered Clouds Scattered Clouds  
Wind Chill: 15°   Ceiling: Unl
Heat Index: 15°   Visibility: 10mi
Dew Point:   Wind: 6mph
Humidity: 60%   Direction: NA
Pressure: 29.98"   Gusts: NA
Location:  35.15°N, 90.05°W
Report Text: KMEM 310554Z VRB05KT 10SM FEW080 SCT250 15/07 A2998 RMK AO2 SLP151 T01500072 10172 20128 402110067 58008 $
Loading
Personal Weather Stations






























Interactive Weather Map
Tropical Storm Tracking
New forecast layout! Learn more

10-Day Weather Forecast

Advertisements
Track Severe Weather on mobile